Kincheloe, MI (49788)

2:49 PM EDT on August 29, 2014 (GMT -0400)
Charlotte Beach | Change Station
CLOSE
Current Station
Personal Weather Station
Location: Barbeau, MI
Elevation: 571 ft
Nearby Weather Stations

Elev 571 ft 46.31 °N, 84.22 °W | Updated 11 minutes ago

Overcast
Overcast
60.3 °F
Feels Like 60.3 °F
N
10.0
Wind Variable Wind from East
Gusts 15.0 mph

Today
High -- | Low -- °F
--% Chance of Precip.
Yesterday
High -- | Low -- °F
Precip. -- in
6:54 AM 8:22 PM
Waxing Crescent, 16% visible
Pressure 30.01 in
Visibility 10.0 miles
Clouds Overcast 800 ft
Dew Point 59 °F
Humidity 94%
Rainfall 0.02 in
Snow Depth Not available.
UV 2 out of 12
Pollen 7.20 out of 12
Ozone Good
PM2.5 Good
Flu Activity Not available.
METAR KCIU 291835Z AUTO 14014G17KT 10SM OVC008 16/16 A3001 RMK AO1

More Conditions Fewer Conditions

Pressure 30.01 in
Visibility 10.0 miles
Clouds Overcast 800 ft
Dew Point 59 °F
Humidity 94%
Rainfall 0.02 in
Snow Depth Not available.
UV 2 out of 12
Pollen 7.20 out of 12
Ozone Good
PM2.5 Good
Flu Activity Not available.
METAR KCIU 291835Z AUTO 14014G17KT 10SM OVC008 16/16 A3001 RMK AO1

More Conditions Fewer Conditions

Nowcast | as of 2:00 PM EDT on August 29, 2014

At 3 PM...cloudy. Scattered rain showers. Temperature 63. Southeast winds 12 mph. At 5 PM...cloudy. Scattered rain showers. Temperature 65. Southeast winds 13 mph. At 7 PM...cloudy. Scattered rain showers. Temperature 64. Southeast winds 10 mph. At 9 PM...rain showers and chance of thunderstorms. Temperature 62. Southeast winds 9 mph.

×

10-Day Weather Forecast

Almanac

Astronomy

Aug. 29, 2014 Rise Set
Actual Time 6:54 AM EDT 8:22 PM EDT
Civil Twilight 6:23 AM EDT 8:53 PM EDT
Nautical Twilight 5:45 AM EDT 9:31 PM EDT
Astronomical Twilight 5:04 AM EDT 10:11 PM EDT
Moon 10:58 AM EDT 10:02 PM EDT
Length of Visible Light 14h 30m
Length of Day
13h 27m
Tomorrow will be 3m 8s shorter.
Waxing Crescent, 16% of the Moon is Illuminated
Today
Waxing Crescent
Sep 2
First Quarter
Sep 8
Full
Sep 15
Last Quarter
Sep 24
New

Today's Extremes

State Highs State Lows

Community

WunderPhotos

Upload Photos

1,748,314 photos uploaded!

Nearby

Air Quality

  Air Quality AQ Index Pollutant
Yesterday Good
OZONE
Yesterday Good
PM2.5
Current Good
PM2.5
Current Good
OZONE
Friday Good
OZONE
Friday Good
PM2.5
Saturday Good
OZONE
Saturday Good
PM2.5
Sunday Good
OZONE
Sunday Good
PM2.5
Monday Good
OZONE
Monday Good
PM2.5
Tuesday Good
OZONE
Tuesday Good
PM2.5

Snow Depth

Station Depth Elevation
No new snow has been reported.

Earthquake Activity

City Distance Mag. Time & Date
No recent earthquake activity has been reported nearby.
Minimum magnitude displayed is 2.5.

Coastal Water Temperatures

Place Temperature
De Tour Village, MI 61.0 °F
Rock Cut, MI 60.1 °F
Little Rapids, MI 59.0 °F
S W Pier, MI 61.0 °F
West Neebish, MI 59.0 °F

Nearby Weather Stations